Time;durP1;ratioP1;P1;durP2;ratioP2;P2;SDS_P1;SDS_P2;PMS_P1;PMS_P2;Temp;Humidity;BMP_temperature;BMP_pressure;BME280_temperature;BME280_humidity;BME280_pressure;Samples;Min_cycle;Max_cycle;Signal;HPM_P1;HPM_P2
2022/05/19 00:02:21;;;;;;;39.53;22.77;;;;;;;;;;4979367;28;20029;-89
2022/05/19 00:04:53;;;;;;;42.70;22.40;;;;;;;;;;4963538;28;20066;-89
2022/05/19 00:07:19;;;;;;;43.20;21.80;;;;;;;;;;4957567;28;20070;-89
2022/05/19 00:09:46;;;;;;;43.75;24.05;;;;;;;;;;4958882;28;20046;-89
2022/05/19 00:12:16;;;;;;;46.33;24.15;;;;;;;;;;4978114;28;20038;-89
2022/05/19 00:14:42;;;;;;;42.58;24.45;;;;;;;;;;4976986;28;20081;-89
2022/05/19 00:17:08;;;;;;;49.10;25.58;;;;;;;;;;4960858;28;20026;-89
2022/05/19 00:19:34;;;;;;;38.67;22.70;;;;;;;;;;4975154;28;20034;-89
2022/05/19 00:22:01;;;;;;;38.15;24.42;;;;;;;;;;4980051;28;20150;-89
2022/05/19 00:24:27;;;;;;;50.53;25.75;;;;;;;;;;4978669;28;20820;-88
2022/05/19 00:26:53;;;;;;;45.63;24.13;;;;;;;;;;4964998;28;20042;-89
2022/05/19 00:29:19;;;;;;;44.03;24.95;;;;;;;;;;4964192;28;20034;-89
2022/05/19 00:31:45;;;;;;;45.85;23.80;;;;;;;;;;4957207;28;20531;-89
2022/05/19 00:34:18;;;;;;;48.47;24.83;;;;;;;;;;4962781;28;20053;-89
2022/05/19 00:36:44;;;;;;;50.83;26.83;;;;;;;;;;4974624;28;20035;-89
2022/05/19 00:39:11;;;;;;;52.15;27.15;;;;;;;;;;4965665;28;20700;-88
2022/05/19 00:41:42;;;;;;;51.83;29.70;;;;;;;;;;4966099;28;20116;-89
2022/05/19 00:44:08;;;;;;;61.15;31.67;;;;;;;;;;4968892;28;20449;-89
2022/05/19 00:46:50;;;;;;;57.40;31.17;;;;;;;;;;4967574;28;20035;-89
2022/05/19 00:49:18;;;;;;;55.30;31.80;;;;;;;;;;4965061;28;20081;-89
2022/05/19 00:51:51;;;;;;;58.22;30.75;;;;;;;;;;4957204;28;20061;-89
2022/05/19 00:54:18;;;;;;;57.08;32.83;;;;;;;;;;4966355;28;20521;-89
2022/05/19 00:56:49;;;;;;;53.97;32.22;;;;;;;;;;4965112;28;20037;-89
2022/05/19 00:59:21;;;;;;;70.15;33.45;;;;;;;;;;4968393;28;20026;-89
2022/05/19 01:01:47;;;;;;;63.40;34.78;;;;;;;;;;4981223;28;20042;-88
2022/05/19 01:04:20;;;;;;;56.35;34.38;;;;;;;;;;4963617;28;20031;-88
2022/05/19 01:06:48;;;;;;;65.53;35.95;;;;;;;;;;4962563;28;20682;-88
2022/05/19 01:09:16;;;;;;;59.38;33.45;;;;;;;;;;4968729;28;20124;-88
2022/05/19 01:11:43;;;;;;;65.70;35.80;;;;;;;;;;4960785;28;20637;-89
2022/05/19 01:14:10;;;;;;;65.45;36.28;;;;;;;;;;4963321;28;20458;-89
2022/05/19 01:16:37;;;;;;;67.60;35.72;;;;;;;;;;4962220;28;21514;-89
2022/05/19 01:19:05;;;;;;;58.80;35.28;;;;;;;;;;4981399;28;20077;-89
2022/05/19 01:21:32;;;;;;;70.18;36.30;;;;;;;;;;4964418;28;20041;-89
2022/05/19 01:24:04;;;;;;;56.55;35.47;;;;;;;;;;4967332;28;20051;-89
2022/05/19 01:26:43;;;;;;;65.63;35.78;;;;;;;;;;4965263;28;20674;-89
2022/05/19 01:29:10;;;;;;;64.72;34.70;;;;;;;;;;4964679;28;20049;-89
2022/05/19 01:31:52;;;;;;;64.15;35.63;;;;;;;;;;4967132;28;20033;-89
2022/05/19 01:34:20;;;;;;;74.53;37.97;;;;;;;;;;4980395;28;20038;-89
2022/05/19 01:36:46;;;;;;;70.80;36.97;;;;;;;;;;4980958;28;20030;-89
2022/05/19 01:39:14;;;;;;;65.30;35.00;;;;;;;;;;4964179;28;20059;-89
2022/05/19 01:41:56;;;;;;;58.33;34.90;;;;;;;;;;4963848;28;20030;-89
2022/05/19 01:44:32;;;;;;;64.82;35.42;;;;;;;;;;4964352;28;20030;-89
2022/05/19 01:47:03;;;;;;;67.70;35.05;;;;;;;;;;4978451;28;20030;-88
2022/05/19 01:49:34;;;;;;;62.50;35.67;;;;;;;;;;4981091;28;20038;-89
2022/05/19 01:52:04;;;;;;;63.45;36.92;;;;;;;;;;4955305;28;20479;-89
2022/05/19 01:54:41;;;;;;;63.90;37.10;;;;;;;;;;4966241;28;20038;-89
2022/05/19 01:57:17;;;;;;;66.13;38.00;;;;;;;;;;4981217;28;20029;-89
2022/05/19 02:00:02;;;;;;;73.28;39.28;;;;;;;;;;4958803;28;20042;-89
2022/05/19 02:02:38;;;;;;;76.82;40.38;;;;;;;;;;4971413;28;23042;-89
2022/05/19 02:05:23;;;;;;;76.82;42.97;;;;;;;;;;4962197;28;21294;-89
2022/05/19 02:07:51;;;;;;;70.78;41.90;;;;;;;;;;4965436;28;20035;-89
2022/05/19 02:10:19;;;;;;;77.50;46.00;;;;;;;;;;4967375;28;20042;-89
2022/05/19 02:12:46;;;;;;;83.20;47.45;;;;;;;;;;4981790;28;21021;-89
2022/05/19 02:15:13;;;;;;;86.38;46.58;;;;;;;;;;4964114;28;20026;-89
2022/05/19 02:17:40;;;;;;;89.45;46.22;;;;;;;;;;4974730;28;20031;-89
2022/05/19 02:20:08;;;;;;;92.90;47.92;;;;;;;;;;4963420;28;20500;-89
2022/05/19 02:22:36;;;;;;;94.32;47.90;;;;;;;;;;4966574;28;20022;-89
2022/05/19 02:25:14;;;;;;;89.30;48.10;;;;;;;;;;4967940;28;20034;-89
2022/05/19 02:27:46;;;;;;;93.55;48.25;;;;;;;;;;4965159;28;20033;-89
2022/05/19 02:30:21;;;;;;;92.70;47.97;;;;;;;;;;4969432;28;20038;-89
2022/05/19 02:32:47;;;;;;;89.25;46.72;;;;;;;;;;4967672;28;20602;-88
2022/05/19 02:35:14;;;;;;;90.10;48.30;;;;;;;;;;4965305;28;20535;-89
2022/05/19 02:37:40;;;;;;;86.72;47.42;;;;;;;;;;4979345;28;20034;-89
2022/05/19 02:40:07;;;;;;;83.50;48.05;;;;;;;;;;4982485;28;20116;-89
2022/05/19 02:42:33;;;;;;;81.53;49.00;;;;;;;;;;4964937;28;20490;-89
2022/05/19 02:44:59;;;;;;;88.10;49.33;;;;;;;;;;4975487;28;20109;-89
2022/05/19 02:47:25;;;;;;;88.63;48.75;;;;;;;;;;4975296;28;20683;-89
2022/05/19 02:49:51;;;;;;;94.75;49.20;;;;;;;;;;4964227;28;20514;-89
2022/05/19 02:52:17;;;;;;;85.38;47.30;;;;;;;;;;4973997;28;20035;-89
2022/05/19 02:54:43;;;;;;;83.60;47.75;;;;;;;;;;4962611;28;20056;-89
2022/05/19 02:57:09;;;;;;;89.38;46.10;;;;;;;;;;4962826;28;20030;-89
2022/05/19 02:59:35;;;;;;;86.30;46.30;;;;;;;;;;4959208;28;20073;-89
2022/05/19 03:02:01;;;;;;;75.13;43.28;;;;;;;;;;4965106;28;20046;-90
2022/05/19 03:04:27;;;;;;;83.88;43.38;;;;;;;;;;4975723;28;20030;-90
2022/05/19 03:06:53;;;;;;;83.32;43.80;;;;;;;;;;4970603;28;20038;-89
2022/05/19 03:09:21;;;;;;;78.10;43.90;;;;;;;;;;4975717;28;20524;-89
2022/05/19 03:11:47;;;;;;;83.47;40.10;;;;;;;;;;4979513;28;20031;-89
2022/05/19 03:14:13;;;;;;;76.07;40.55;;;;;;;;;;4971895;28;20037;-89
2022/05/19 03:16:39;;;;;;;73.30;40.55;;;;;;;;;;4968135;28;20781;-89
2022/05/19 03:19:05;;;;;;;74.75;40.67;;;;;;;;;;4967065;28;20026;-88
2022/05/19 03:21:31;;;;;;;77.30;39.05;;;;;;;;;;4963888;28;20530;-89
2022/05/19 03:23:58;;;;;;;75.05;41.80;;;;;;;;;;4982381;28;20158;-89
2022/05/19 03:26:23;;;;;;;82.13;39.38;;;;;;;;;;4963388;28;20544;-89
2022/05/19 03:28:49;;;;;;;79.15;41.28;;;;;;;;;;4973381;28;20035;-89
2022/05/19 03:31:16;;;;;;;76.68;40.03;;;;;;;;;;4962806;28;20503;-89
2022/05/19 03:33:42;;;;;;;74.88;40.28;;;;;;;;;;4973177;28;20134;-89
2022/05/19 03:36:08;;;;;;;71.85;40.67;;;;;;;;;;4973890;28;20043;-89
2022/05/19 03:38:34;;;;;;;84.68;43.45;;;;;;;;;;4963418;28;20494;-89
2022/05/19 03:41:00;;;;;;;81.38;43.08;;;;;;;;;;4960583;28;20497;-89
2022/05/19 03:43:26;;;;;;;84.93;42.85;;;;;;;;;;4967673;28;20204;-89
2022/05/19 03:45:53;;;;;;;88.95;45.33;;;;;;;;;;4960970;28;20074;-88
2022/05/19 03:48:19;;;;;;;87.03;44.72;;;;;;;;;;4976096;28;20108;-88
2022/05/19 03:50:46;;;;;;;98.75;48.70;;;;;;;;;;4956273;28;20455;-89
2022/05/19 03:53:13;;;;;;;87.32;46.63;;;;;;;;;;4977706;28;20037;-89
2022/05/19 03:55:39;;;;;;;97.00;47.78;;;;;;;;;;4963851;28;20703;-89
2022/05/19 03:58:05;;;;;;;89.95;48.70;;;;;;;;;;4963490;28;20022;-89
2022/05/19 04:00:32;;;;;;;94.20;48.47;;;;;;;;;;4964615;28;20058;-89
2022/05/19 04:02:59;;;;;;;91.72;47.88;;;;;;;;;;4968621;28;20029;-89
2022/05/19 04:05:26;;;;;;;88.35;46.40;;;;;;;;;;4962810;28;20065;-90
2022/05/19 04:07:52;;;;;;;91.72;49.00;;;;;;;;;;4963759;28;20417;-89
2022/05/19 04:10:19;;;;;;;105.15;49.58;;;;;;;;;;4962348;28;20478;-89
2022/05/19 04:12:45;;;;;;;84.53;48.13;;;;;;;;;;4963442;28;20045;-89
2022/05/19 04:15:12;;;;;;;98.75;50.83;;;;;;;;;;4977640;28;20199;-90
2022/05/19 04:17:39;;;;;;;90.82;49.70;;;;;;;;;;4966404;28;20058;-90
2022/05/19 04:20:06;;;;;;;105.07;50.53;;;;;;;;;;4978612;28;20064;-90
2022/05/19 04:22:32;;;;;;;100.95;50.08;;;;;;;;;;4965903;28;20549;-90
2022/05/19 04:25:00;;;;;;;97.65;48.70;;;;;;;;;;4982178;28;20037;-90
2022/05/19 04:27:33;;;;;;;87.50;47.38;;;;;;;;;;4964788;28;20026;-90
2022/05/19 04:30:00;;;;;;;93.80;50.35;;;;;;;;;;4983298;28;20585;-90
2022/05/19 04:32:26;;;;;;;99.97;50.33;;;;;;;;;;4981610;28;20113;-89
2022/05/19 04:34:52;;;;;;;97.30;48.22;;;;;;;;;;4962154;28;20081;-89
2022/05/19 04:37:18;;;;;;;93.97;48.33;;;;;;;;;;4962680;28;20038;-89
2022/05/19 04:39:44;;;;;;;91.15;48.80;;;;;;;;;;4962080;28;20120;-90
2022/05/19 04:42:11;;;;;;;93.63;48.20;;;;;;;;;;4965073;28;20049;-88
2022/05/19 04:44:38;;;;;;;85.03;46.40;;;;;;;;;;4981311;28;20027;-89
2022/05/19 04:47:05;;;;;;;82.82;45.38;;;;;;;;;;4969420;28;20128;-89
2022/05/19 04:49:31;;;;;;;85.93;45.25;;;;;;;;;;4959201;28;20035;-89
2022/05/19 04:51:57;;;;;;;81.32;45.20;;;;;;;;;;4960495;28;20125;-89
2022/05/19 04:54:23;;;;;;;80.13;44.85;;;;;;;;;;4964707;28;20061;-90
2022/05/19 04:56:50;;;;;;;85.28;43.47;;;;;;;;;;4977823;28;20062;-90
2022/05/19 04:59:16;;;;;;;69.30;40.83;;;;;;;;;;4969065;28;20514;-89
2022/05/19 05:01:46;;;;;;;72.53;42.50;;;;;;;;;;4968433;28;20037;-89
2022/05/19 05:04:12;;;;;;;82.97;41.33;;;;;;;;;;4968749;28;20037;-89
2022/05/19 05:06:38;;;;;;;82.03;42.33;;;;;;;;;;4981329;28;20397;-90
2022/05/19 05:09:05;;;;;;;72.80;40.88;;;;;;;;;;4967344;28;20040;-90
2022/05/19 05:11:31;;;;;;;66.38;40.47;;;;;;;;;;4967379;28;20030;-90
2022/05/19 05:13:57;;;;;;;74.93;40.00;;;;;;;;;;4965417;28;20036;-90
2022/05/19 05:16:23;;;;;;;74.80;40.30;;;;;;;;;;4978082;28;20030;-95
2022/05/19 05:18:49;;;;;;;82.00;43.53;;;;;;;;;;4963794;28;20031;-90
2022/05/19 05:21:15;;;;;;;70.88;40.22;;;;;;;;;;4964310;28;20022;-90
2022/05/19 05:23:42;;;;;;;72.00;39.78;;;;;;;;;;4962754;28;20484;-90
2022/05/19 05:26:08;;;;;;;67.07;39.90;;;;;;;;;;4967075;28;20038;-90
2022/05/19 05:28:35;;;;;;;65.20;37.75;;;;;;;;;;4967476;28;20022;-89
2022/05/19 05:31:02;;;;;;;78.45;40.67;;;;;;;;;;4964369;28;20073;-90
2022/05/19 05:33:28;;;;;;;69.10;37.65;;;;;;;;;;4978494;28;20026;-90
2022/05/19 05:35:54;;;;;;;71.13;36.47;;;;;;;;;;4969508;28;20038;-90
2022/05/19 05:38:20;;;;;;;66.40;36.75;;;;;;;;;;4981942;28;20106;-90
2022/05/19 05:40:49;;;;;;;80.15;37.47;;;;;;;;;;4963845;28;20188;-90
2022/05/19 05:43:19;;;;;;;61.42;34.47;;;;;;;;;;4964748;28;20034;-90
2022/05/19 05:45:45;;;;;;;61.13;33.20;;;;;;;;;;4964989;28;20058;-91
2022/05/19 05:48:11;;;;;;;54.88;31.85;;;;;;;;;;4980330;28;20053;-91
2022/05/19 05:50:38;;;;;;;55.00;32.92;;;;;;;;;;4964668;28;20125;-91
2022/05/19 05:53:04;;;;;;;53.33;31.05;;;;;;;;;;4966185;28;20135;-90
2022/05/19 05:55:30;;;;;;;51.92;30.65;;;;;;;;;;4979546;28;20097;-90
2022/05/19 05:57:56;;;;;;;54.25;28.20;;;;;;;;;;4971280;28;20034;-91
2022/05/19 06:00:23;;;;;;;47.88;28.92;;;;;;;;;;4970264;28;20038;-91
2022/05/19 06:02:49;;;;;;;51.03;28.92;;;;;;;;;;4984820;28;20027;-90
2022/05/19 06:05:16;;;;;;;46.47;27.23;;;;;;;;;;4970144;28;20035;-91
2022/05/19 06:07:42;;;;;;;44.30;26.50;;;;;;;;;;4970679;28;20062;-90
2022/05/19 06:10:09;;;;;;;53.95;27.75;;;;;;;;;;4967036;28;20051;-90
2022/05/19 06:12:42;;;;;;;43.33;26.40;;;;;;;;;;4981839;28;20028;-90
2022/05/19 06:15:09;;;;;;;47.70;26.75;;;;;;;;;;4965503;28;20553;-91
2022/05/19 06:17:35;;;;;;;51.00;25.33;;;;;;;;;;4963319;28;20085;-90
2022/05/19 06:20:01;;;;;;;49.00;25.42;;;;;;;;;;4962480;28;20038;-90
2022/05/19 06:22:27;;;;;;;38.72;23.83;;;;;;;;;;4965228;28;22331;-91
2022/05/19 06:24:53;;;;;;;41.00;23.27;;;;;;;;;;4980150;28;20038;-90
2022/05/19 06:27:19;;;;;;;38.30;23.33;;;;;;;;;;4966559;28;20038;-90
2022/05/19 06:29:45;;;;;;;37.78;23.23;;;;;;;;;;4986488;28;20084;-91
2022/05/19 06:32:11;;;;;;;31.98;20.80;;;;;;;;;;4969851;28;20911;-90
2022/05/19 06:34:37;;;;;;;43.53;23.05;;;;;;;;;;4968791;28;20031;-90
2022/05/19 06:37:03;;;;;;;36.60;21.15;;;;;;;;;;4966697;28;20034;-90
2022/05/19 06:39:30;;;;;;;33.35;20.27;;;;;;;;;;4966238;28;20058;-90
2022/05/19 06:42:02;;;;;;;32.97;19.85;;;;;;;;;;4967445;28;20034;-90
2022/05/19 06:44:29;;;;;;;32.50;19.88;;;;;;;;;;4963972;28;20629;-90
2022/05/19 06:46:56;;;;;;;35.35;19.92;;;;;;;;;;4963780;28;20065;-90
2022/05/19 06:49:22;;;;;;;29.02;18.52;;;;;;;;;;4968730;28;20026;-90
2022/05/19 06:51:48;;;;;;;41.20;21.42;;;;;;;;;;4965612;28;20031;-90
2022/05/19 06:54:14;;;;;;;35.35;19.38;;;;;;;;;;4967300;28;20034;-91
2022/05/19 06:56:40;;;;;;;30.20;19.45;;;;;;;;;;4962140;28;20085;-90
2022/05/19 06:59:07;;;;;;;29.73;18.67;;;;;;;;;;4966083;28;20022;-90
2022/05/19 07:01:34;;;;;;;33.53;19.77;;;;;;;;;;4961972;28;20830;-90
2022/05/19 07:04:00;;;;;;;37.30;20.90;;;;;;;;;;4968648;28;20026;-91
2022/05/19 07:06:26;;;;;;;25.05;16.60;;;;;;;;;;4961691;28;20030;-91
2022/05/19 07:08:53;;;;;;;30.63;18.08;;;;;;;;;;4962450;28;20697;-91
2022/05/19 07:11:26;;;;;;;40.00;19.30;;;;;;;;;;4962556;28;20549;-90
2022/05/19 07:13:56;;;;;;;30.08;19.90;;;;;;;;;;4963732;28;20460;-91
2022/05/19 07:16:22;;;;;;;37.17;20.30;;;;;;;;;;4960752;28;20686;-91
2022/05/19 07:18:48;;;;;;;44.15;22.63;;;;;;;;;;4973981;28;20371;-91
2022/05/19 07:21:17;;;;;;;34.90;22.27;;;;;;;;;;4965436;28;20046;-91
2022/05/19 07:23:43;;;;;;;38.63;23.25;;;;;;;;;;4979615;28;20362;-91
2022/05/19 07:26:10;;;;;;;38.13;22.98;;;;;;;;;;4965275;28;20192;-91
2022/05/19 07:28:36;;;;;;;37.03;22.38;;;;;;;;;;4962883;28;20041;-91
2022/05/19 07:31:02;;;;;;;33.17;22.85;;;;;;;;;;4964775;28;20022;-90
2022/05/19 07:33:28;;;;;;;39.35;22.77;;;;;;;;;;4966903;28;20160;-91
2022/05/19 07:35:55;;;;;;;37.45;23.95;;;;;;;;;;4964495;28;20035;-91
2022/05/19 07:38:21;;;;;;;37.78;25.13;;;;;;;;;;4964041;28;20129;-91
2022/05/19 07:40:49;;;;;;;39.95;23.65;;;;;;;;;;4962273;28;20517;-90
2022/05/19 07:46:01;;;;;;;42.45;24.40;;;;;;;;;;4980691;28;20520;-91
2022/05/19 07:48:27;;;;;;;33.67;21.52;;;;;;;;;;4969640;28;20122;-90
2022/05/19 07:50:53;;;;;;;40.75;22.85;;;;;;;;;;4971411;28;20100;-90
2022/05/19 07:53:19;;;;;;;36.63;21.30;;;;;;;;;;4964592;28;20026;-89
2022/05/19 07:55:45;;;;;;;37.20;22.58;;;;;;;;;;4960047;28;20030;-90
2022/05/19 07:58:11;;;;;;;32.70;17.67;;;;;;;;;;4973748;28;20034;-90
2022/05/19 08:00:37;;;;;;;24.98;13.45;;;;;;;;;;4963643;28;20632;-91
2022/05/19 08:03:03;;;;;;;25.98;13.70;;;;;;;;;;4962492;28;20042;-90
2022/05/19 08:05:30;;;;;;;29.48;13.95;;;;;;;;;;4976249;28;20363;-91
2022/05/19 08:07:56;;;;;;;27.95;13.45;;;;;;;;;;4964736;28;20479;-90
2022/05/19 08:10:25;;;;;;;34.67;13.00;;;;;;;;;;4967304;28;20084;-91
2022/05/19 08:15:42;;;;;;;27.35;9.82;;;;;;;;;;4981571;28;20040;-90
2022/05/19 08:18:10;;;;;;;24.52;10.05;;;;;;;;;;4957319;28;20470;-91
2022/05/19 08:20:39;;;;;;;20.33;8.43;;;;;;;;;;4972569;28;20117;-90
2022/05/19 08:23:05;;;;;;;21.50;8.40;;;;;;;;;;4963518;28;20598;-90
2022/05/19 08:25:31;;;;;;;17.30;8.02;;;;;;;;;;4960708;28;20027;-90
2022/05/19 08:27:58;;;;;;;20.30;7.32;;;;;;;;;;4979072;28;20480;-90
2022/05/19 08:30:25;;;;;;;14.93;8.10;;;;;;;;;;4940970;28;20038;-90
2022/05/19 08:32:51;;;;;;;23.25;8.00;;;;;;;;;;4956879;28;20510;-90
2022/05/19 08:35:17;;;;;;;15.63;6.65;;;;;;;;;;4968509;28;20065;-90
2022/05/19 08:37:43;;;;;;;12.68;6.82;;;;;;;;;;4977760;28;20030;-90
2022/05/19 08:40:11;;;;;;;14.80;8.18;;;;;;;;;;4960934;28;20038;-90
2022/05/19 08:42:39;;;;;;;12.10;7.15;;;;;;;;;;4968623;28;20707;-90
2022/05/19 08:45:11;;;;;;;17.90;6.80;;;;;;;;;;4958995;28;20139;-91
2022/05/19 08:47:37;;;;;;;13.45;6.72;;;;;;;;;;4965255;28;20034;-90
2022/05/19 08:50:06;;;;;;;13.90;7.40;;;;;;;;;;4963456;28;20063;-90
2022/05/19 08:52:44;;;;;;;11.27;6.07;;;;;;;;;;4961867;28;20137;-90
2022/05/19 08:55:11;;;;;;;12.48;6.47;;;;;;;;;;4961859;28;20486;-90
2022/05/19 08:57:41;;;;;;;17.50;6.53;;;;;;;;;;4972043;28;20042;-90
2022/05/19 09:00:07;;;;;;;17.65;6.72;;;;;;;;;;4973493;28;20046;-90
2022/05/19 09:02:47;;;;;;;10.85;5.80;;;;;;;;;;4968220;28;20034;-90
2022/05/19 09:05:32;;;;;;;16.15;5.40;;;;;;;;;;4962550;28;20077;-90
2022/05/19 09:08:01;;;;;;;20.02;6.88;;;;;;;;;;4968414;28;20125;-90
2022/05/19 09:10:40;;;;;;;10.43;5.95;;;;;;;;;;4962022;28;20093;-90
2022/05/19 09:13:25;;;;;;;13.05;6.05;;;;;;;;;;4966596;28;20505;-90
2022/05/19 09:15:52;;;;;;;10.05;5.82;;;;;;;;;;4959001;28;20039;-90
2022/05/19 09:18:20;;;;;;;14.93;5.60;;;;;;;;;;4976314;28;20352;-90
2022/05/19 09:20:51;;;;;;;9.93;6.18;;;;;;;;;;4967599;28;20046;-90
2022/05/19 09:23:17;;;;;;;8.70;5.40;;;;;;;;;;4963964;28;20671;-90
2022/05/19 09:25:46;;;;;;;14.25;5.65;;;;;;;;;;4964034;28;20502;-90
2022/05/19 09:28:12;;;;;;;8.75;5.50;;;;;;;;;;4969406;28;20740;-90
2022/05/19 09:30:57;;;;;;;10.02;5.50;;;;;;;;;;4966811;28;20035;-90
2022/05/19 09:33:30;;;;;;;13.15;5.63;;;;;;;;;;4986481;28;20402;-90
2022/05/19 09:36:00;;;;;;;12.52;6.35;;;;;;;;;;4969199;28;20132;-90
2022/05/19 09:38:32;;;;;;;11.65;6.18;;;;;;;;;;4972168;28;20054;-90
2022/05/19 09:41:06;;;;;;;11.25;6.47;;;;;;;;;;4964536;28;20245;-90
2022/05/19 09:43:36;;;;;;;10.35;6.05;;;;;;;;;;4955102;28;20041;-90
2022/05/19 09:46:13;;;;;;;10.32;6.57;;;;;;;;;;4965942;28;20038;-90
2022/05/19 09:48:45;;;;;;;14.68;6.35;;;;;;;;;;4966315;28;20035;-90
2022/05/19 09:51:14;;;;;;;11.82;7.03;;;;;;;;;;4963089;28;20527;-90
2022/05/19 09:53:42;;;;;;;11.77;6.18;;;;;;;;;;4954566;28;20060;-91
2022/05/19 09:56:10;;;;;;;11.38;6.05;;;;;;;;;;4979464;28;20042;-90
2022/05/19 09:58:39;;;;;;;19.15;6.72;;;;;;;;;;4968453;28;20026;-91
2022/05/19 10:01:08;;;;;;;11.68;5.82;;;;;;;;;;4981784;28;20128;-90
2022/05/19 10:03:46;;;;;;;9.07;5.28;;;;;;;;;;4966490;28;20026;-91
2022/05/19 10:06:16;;;;;;;11.13;5.90;;;;;;;;;;4971497;28;20054;-90
2022/05/19 10:08:43;;;;;;;9.40;5.30;;;;;;;;;;4959125;28;20034;-90
2022/05/19 10:11:18;;;;;;;14.98;5.40;;;;;;;;;;4978247;28;20117;-90
2022/05/19 10:13:49;;;;;;;9.80;4.60;;;;;;;;;;4964329;28;20026;-90
2022/05/19 10:16:24;;;;;;;12.80;6.70;;;;;;;;;;4982668;28;20026;-90
2022/05/19 10:19:00;;;;;;;11.40;5.70;;;;;;;;;;4975668;28;20027;-89
2022/05/19 10:21:46;;;;;;;15.80;7.10;;;;;;;;;;4955905;28;20038;-90
2022/05/19 10:24:21;;;;;;;15.82;8.18;;;;;;;;;;4980199;28;20118;-90
2022/05/19 10:31:02;;;;;;;16.17;8.90;;;;;;;;;;4969008;28;20039;-91
2022/05/19 10:32:52;;;;;;;13.13;6.75;;;;;;;;;;4987778;28;20600;-92
2022/05/19 10:35:18;;;;;;;;;;;;;;;;;;4968772;28;20045;-90
2022/05/19 10:37:57;;;;;;;10.18;5.05;;;;;;;;;;4979840;28;19921;-91
2022/05/19 10:40:23;;;;;;;10.65;6.00;;;;;;;;;;4984713;28;20051;-92
2022/05/19 10:42:59;;;;;;;11.30;6.05;;;;;;;;;;4985870;28;20105;-91
2022/05/19 10:45:27;;;;;;;9.10;5.05;;;;;;;;;;4987113;28;20057;-92
2022/05/19 10:47:56;;;;;;;12.25;6.03;;;;;;;;;;4965111;28;20549;-89
2022/05/19 10:50:30;;;;;;;11.77;5.30;;;;;;;;;;4960401;28;20263;-92
2022/05/19 10:53:07;;;;;;;10.82;5.57;;;;;;;;;;4983432;28;20124;-92
2022/05/19 10:55:52;;;;;;;11.27;4.78;;;;;;;;;;4970948;28;20102;-93
2022/05/19 10:58:21;;;;;;;7.72;5.03;;;;;;;;;;4976719;28;20030;-90
2022/05/19 11:00:47;;;;;;;8.73;5.38;;;;;;;;;;4975350;28;20050;-91
2022/05/19 11:03:16;;;;;;;5.82;4.47;;;;;;;;;;4957622;28;20606;-91
2022/05/19 11:05:52;;;;;;;7.28;5.55;;;;;;;;;;4971385;28;20494;-91
2022/05/19 11:08:21;;;;;;;17.40;6.13;;;;;;;;;;4956317;28;20081;-91
2022/05/19 11:11:00;;;;;;;10.50;6.43;;;;;;;;;;4957903;28;20046;-91
2022/05/19 11:13:32;;;;;;;12.40;7.10;;;;;;;;;;4979075;28;20494;-90
2022/05/19 11:16:14;;;;;;;8.73;6.30;;;;;;;;;;4955193;28;20053;-90
2022/05/19 11:18:54;;;;;;;11.65;6.18;;;;;;;;;;4965598;28;20366;-91
2022/05/19 11:21:20;;;;;;;8.55;4.68;;;;;;;;;;4977459;28;20026;-90
2022/05/19 11:23:56;;;;;;;10.68;5.70;;;;;;;;;;4975285;28;20053;-91
2022/05/19 11:26:26;;;;;;;8.68;6.05;;;;;;;;;;4976783;28;20113;-91
2022/05/19 11:28:58;;;;;;;9.18;5.47;;;;;;;;;;4961760;28;20101;-91
2022/05/19 11:31:35;;;;;;;10.98;6.25;;;;;;;;;;4961609;28;20030;-91
2022/05/19 11:34:02;;;;;;;11.77;5.95;;;;;;;;;;4964881;28;20513;-91
2022/05/19 11:36:31;;;;;;;10.55;6.10;;;;;;;;;;4953403;28;20186;-91
2022/05/19 11:39:24;;;;;;;9.88;7.30;;;;;;;;;;4961544;28;20109;-91
2022/05/19 11:42:01;;;;;;;11.32;7.65;;;;;;;;;;4962168;28;20092;-91
2022/05/19 11:44:32;;;;;;;19.25;7.97;;;;;;;;;;4979713;28;20061;-91
2022/05/19 11:47:07;;;;;;;11.27;7.72;;;;;;;;;;4957583;28;20059;-91
2022/05/19 11:55:21;;;;;;;8.98;6.35;;;;;;;;;;4980036;28;20044;-90
2022/05/19 11:58:01;;;;;;;14.00;7.65;;;;;;;;;;4954820;28;20065;-91
2022/05/19 12:00:47;;;;;;;13.90;8.88;;;;;;;;;;4977243;28;20538;-91
2022/05/19 12:03:26;;;;;;;16.67;10.55;;;;;;;;;;4957809;28;20643;-91
2022/05/19 12:05:54;;;;;;;20.13;10.98;;;;;;;;;;4978312;28;20042;-91
2022/05/19 12:08:34;;;;;;;15.48;12.15;;;;;;;;;;4969540;28;20037;-90
2022/05/19 12:11:09;;;;;;;18.73;13.50;;;;;;;;;;4965050;28;20486;-91
2022/05/19 12:13:36;;;;;;;25.65;15.10;;;;;;;;;;4962303;28;20039;-90
2022/05/19 12:16:13;;;;;;;21.88;15.57;;;;;;;;;;4978313;28;20035;-90
2022/05/19 12:18:45;;;;;;;20.00;13.75;;;;;;;;;;4958372;28;20125;-90
2022/05/19 12:21:15;;;;;;;19.42;13.68;;;;;;;;;;4963595;28;20114;-90
2022/05/19 12:23:43;;;;;;;22.35;14.27;;;;;;;;;;4963559;28;20045;-91
2022/05/19 12:26:19;;;;;;;21.05;12.50;;;;;;;;;;4968653;28;20041;-90
2022/05/19 12:28:45;;;;;;;17.48;12.32;;;;;;;;;;4951707;28;20105;-90
2022/05/19 12:34:02;;;;;;;18.20;12.75;;;;;;;;;;4982198;28;20497;-90
2022/05/19 12:36:31;;;;;;;24.48;14.35;;;;;;;;;;4979071;28;20130;-90
2022/05/19 12:39:32;;;;;;;23.23;14.82;;;;;;;;;;4971204;28;20397;-90
2022/05/19 12:42:19;;;;;;;20.02;14.80;;;;;;;;;;4948885;28;20138;-90
2022/05/19 12:44:51;;;;;;;24.00;15.07;;;;;;;;;;4951870;28;20764;-90
2022/05/19 12:47:19;;;;;;;21.67;13.18;;;;;;;;;;4950284;28;20035;-90
2022/05/19 12:50:04;;;;;;;17.80;10.52;;;;;;;;;;4964750;28;20037;-91
2022/05/19 12:52:49;;;;;;;17.15;9.30;;;;;;;;;;4947787;28;20074;-90
2022/05/19 12:55:24;;;;;;;18.88;8.65;;;;;;;;;;4948547;28;20027;-90
2022/05/19 12:57:51;;;;;;;17.48;10.73;;;;;;;;;;4961544;28;20061;-90
2022/05/19 13:00:23;;;;;;;25.92;12.32;;;;;;;;;;4962484;28;20045;-90
2022/05/19 13:03:09;;;;;;;19.40;11.45;;;;;;;;;;4964794;28;20081;-90
2022/05/19 13:05:39;;;;;;;16.40;11.95;;;;;;;;;;4943769;28;20047;-89
2022/05/19 13:08:12;;;;;;;17.67;9.57;;;;;;;;;;4949629;28;20090;-90
2022/05/19 13:10:44;;;;;;;12.45;8.10;;;;;;;;;;4947822;28;20035;-90
2022/05/19 13:13:26;;;;;;;7.93;5.50;;;;;;;;;;4961919;28;20026;-90
2022/05/19 13:15:57;;;;;;;9.63;4.93;;;;;;;;;;4939539;28;20046;-90
2022/05/19 13:18:36;;;;;;;12.93;5.35;;;;;;;;;;4942279;28;20053;-90
2022/05/19 13:21:06;;;;;;;8.23;5.63;;;;;;;;;;4947039;28;20031;-90
2022/05/19 13:23:33;;;;;;;9.35;5.95;;;;;;;;;;4946605;28;20069;-89
2022/05/19 13:26:04;;;;;;;9.10;5.30;;;;;;;;;;4949678;28;20082;-90
2022/05/19 13:31:23;;;;;;;10.75;6.75;;;;;;;;;;4963176;28;20119;-89
2022/05/19 13:33:51;;;;;;;19.58;7.75;;;;;;;;;;4946911;28;20026;-89
2022/05/19 13:36:27;;;;;;;15.48;6.97;;;;;;;;;;4950533;28;20510;-89
2022/05/19 13:39:11;;;;;;;17.45;7.55;;;;;;;;;;4950195;28;20031;-89
2022/05/19 13:42:14;;;;;;;20.00;9.07;;;;;;;;;;4981362;28;20077;-89
2022/05/19 13:44:47;;;;;;;24.08;9.52;;;;;;;;;;4953421;28;20344;-89
2022/05/19 13:47:17;;;;;;;23.35;9.77;;;;;;;;;;4959961;28;20034;-89
2022/05/19 13:49:45;;;;;;;17.45;9.27;;;;;;;;;;4958191;28;20038;-89
2022/05/19 13:52:12;;;;;;;16.40;9.45;;;;;;;;;;4982967;28;20038;-89
2022/05/19 13:54:43;;;;;;;22.88;9.93;;;;;;;;;;4965305;28;20116;-89
2022/05/19 13:57:29;;;;;;;18.67;9.45;;;;;;;;;;4959766;28;20521;-89
2022/05/19 14:00:01;;;;;;;16.02;9.55;;;;;;;;;;4961301;28;20137;-90
2022/05/19 14:02:29;;;;;;;27.42;11.27;;;;;;;;;;4978196;28;20038;-89
2022/05/19 14:04:55;;;;;;;22.67;12.07;;;;;;;;;;4962311;28;20058;-89
2022/05/19 14:07:21;;;;;;;23.63;11.77;;;;;;;;;;4979985;28;20026;-90
2022/05/19 14:09:57;;;;;;;28.33;11.52;;;;;;;;;;4983960;28;20034;-90
2022/05/19 14:12:24;;;;;;;22.92;12.77;;;;;;;;;;4964607;28;20513;-90
2022/05/19 14:15:05;;;;;;;26.48;12.95;;;;;;;;;;4967958;28;20219;-90
2022/05/19 14:17:35;;;;;;;24.95;12.50;;;;;;;;;;4973048;28;20029;-91
2022/05/19 14:20:02;;;;;;;28.88;11.98;;;;;;;;;;4963892;28;20035;-90
2022/05/19 14:22:28;;;;;;;25.00;11.63;;;;;;;;;;4979847;28;20110;-90
2022/05/19 14:24:54;;;;;;;19.73;10.57;;;;;;;;;;4967870;28;20087;-91
2022/05/19 14:27:22;;;;;;;25.95;11.10;;;;;;;;;;4964430;28;20038;-89
2022/05/19 14:29:49;;;;;;;26.92;12.77;;;;;;;;;;4983174;28;20038;-90
2022/05/19 14:32:19;;;;;;;20.98;11.55;;;;;;;;;;4977332;28;20043;-90
2022/05/19 14:34:45;;;;;;;22.60;11.60;;;;;;;;;;4973419;28;20069;-90
2022/05/19 14:37:22;;;;;;;27.65;13.43;;;;;;;;;;4985417;28;20046;-90
2022/05/19 14:39:51;;;;;;;23.13;13.23;;;;;;;;;;4981187;28;20030;-90
2022/05/19 14:45:15;;;;;;;21.10;12.38;;;;;;;;;;4984821;28;20045;-91
2022/05/19 14:47:45;;;;;;;20.70;12.45;;;;;;;;;;4985516;28;20062;-89
2022/05/19 14:50:17;;;;;;;25.02;13.90;;;;;;;;;;4984475;28;20879;-89
2022/05/19 14:52:46;;;;;;;25.05;14.02;;;;;;;;;;4971289;28;20069;-90
2022/05/19 14:55:18;;;;;;;28.38;14.98;;;;;;;;;;4970366;28;20088;-89
2022/05/19 14:57:45;;;;;;;31.23;14.05;;;;;;;;;;4970872;28;20034;-90
2022/05/19 15:00:11;;;;;;;26.63;13.93;;;;;;;;;;4970366;28;20027;-90